Time;durP1;ratioP1;P1;durP2;ratioP2;P2;SDS_P1;SDS_P2;PMS_P1;PMS_P2;Temp;Humidity;BMP_temperature;BMP_pressure;BME280_temperature;BME280_humidity;BME280_pressure;Samples;Min_cycle;Max_cycle;Signal;HPM_P1;HPM_P2
2021/08/02 00:00:59;;;;;;;0.15;0.15;;;;;;;;;;4740038;30;20113;-88
2021/08/02 00:03:27;;;;;;;0.10;0.10;;;;;;;;;;4754897;30;20051;-88
2021/08/02 00:05:53;;;;;;;0.10;0.10;;;;;;;;;;4739981;30;20088;-88
2021/08/02 00:08:23;;;;;;;0.10;0.10;;;;;;;;;;4754608;30;20463;-88
2021/08/02 00:10:50;;;;;;;0.10;0.10;;;;;;;;;;4740242;30;20511;-88
2021/08/02 00:13:17;;;;;;;0.10;0.10;;;;;;;;;;4739953;30;20150;-88
2021/08/02 00:15:45;;;;;;;0.10;0.10;;;;;;;;;;4742159;29;20055;-88
2021/08/02 00:18:11;;;;;;;0.10;0.10;;;;;;;;;;4824224;29;20562;-90
2021/08/02 00:20:38;;;;;;;0.10;0.10;;;;;;;;;;4839222;29;20107;-89
2021/08/02 00:23:05;;;;;;;0.15;0.15;;;;;;;;;;4824302;29;20050;-89
2021/08/02 00:25:31;;;;;;;0.10;0.10;;;;;;;;;;4824182;29;20069;-89
2021/08/02 00:27:57;;;;;;;0.10;0.10;;;;;;;;;;4839207;29;20042;-90
2021/08/02 00:30:24;;;;;;;0.10;0.10;;;;;;;;;;4823378;29;20058;-89
2021/08/02 00:32:51;;;;;;;0.10;0.10;;;;;;;;;;4824055;29;20046;-89
2021/08/02 00:35:17;;;;;;;0.15;0.15;;;;;;;;;;4823933;29;20050;-89
2021/08/02 00:37:57;;;;;;;0.10;0.10;;;;;;;;;;4823872;29;20103;-89
2021/08/02 00:40:48;;;;;;;0.10;0.10;;;;;;;;;;4823869;29;20046;-89
2021/08/02 00:43:14;;;;;;;0.10;0.10;;;;;;;;;;4825129;29;20046;-90
2021/08/02 00:45:40;;;;;;;0.10;0.10;;;;;;;;;;4823417;29;20115;-90
2021/08/02 00:48:10;;;;;;;0.10;0.10;;;;;;;;;;4823680;29;20053;-90
2021/08/02 00:50:43;;;;;;;0.10;0.10;;;;;;;;;;4837532;29;20137;-89
2021/08/02 00:53:20;;;;;;;0.10;0.10;;;;;;;;;;4838903;29;20062;-90
2021/08/02 00:55:47;;;;;;;0.10;0.10;;;;;;;;;;4823762;29;20046;-90
2021/08/02 00:58:16;;;;;;;0.10;0.10;;;;;;;;;;4838795;29;20042;-90
2021/08/02 01:00:42;;;;;;;0.10;0.10;;;;;;;;;;4823725;29;20054;-90
2021/08/02 01:03:08;;;;;;;0.10;0.10;;;;;;;;;;4823171;29;20055;-89
2021/08/02 01:05:38;;;;;;;0.20;0.20;;;;;;;;;;4823535;29;20038;-89
2021/08/02 01:08:08;;;;;;;0.10;0.10;;;;;;;;;;4838640;29;20039;-89
2021/08/02 01:10:35;;;;;;;0.17;0.17;;;;;;;;;;4823567;29;20046;-89
2021/08/02 01:13:02;;;;;;;0.10;0.10;;;;;;;;;;4838436;29;20042;-89
2021/08/02 01:15:28;;;;;;;0.10;0.10;;;;;;;;;;4823283;29;20407;-89
2021/08/02 01:17:56;;;;;;;0.10;0.10;;;;;;;;;;4838356;29;20050;-89
2021/08/02 01:20:22;;;;;;;0.10;0.10;;;;;;;;;;4824434;29;20122;-89
2021/08/02 01:22:48;;;;;;;0.10;0.10;;;;;;;;;;4838401;29;20125;-90
2021/08/02 01:25:33;;;;;;;0.10;0.10;;;;;;;;;;4824070;29;20136;-91
2021/08/02 01:28:14;;;;;;;0.10;0.10;;;;;;;;;;4823171;29;20506;-89
2021/08/02 01:30:49;;;;;;;0.10;0.10;;;;;;;;;;4824185;29;20042;-89
2021/08/02 01:33:19;;;;;;;0.10;0.10;;;;;;;;;;4838139;29;20475;-89
2021/08/02 01:35:45;;;;;;;0.20;0.20;;;;;;;;;;4822870;29;20049;-89
2021/08/02 01:38:11;;;;;;;0.10;0.10;;;;;;;;;;4837886;29;20494;-89
2021/08/02 01:40:37;;;;;;;0.20;0.20;;;;;;;;;;4822956;29;20071;-89
2021/08/02 01:43:05;;;;;;;0.10;0.10;;;;;;;;;;4822975;29;20034;-90
2021/08/02 01:46:07;;;;;;;0.10;0.10;;;;;;;;;;4822592;29;20058;-89
2021/08/02 01:48:36;;;;;;;0.10;0.10;;;;;;;;;;4788514;29;20053;-89
2021/08/02 01:51:05;;;;;;;0.10;0.10;;;;;;;;;;4820479;29;20070;-89
2021/08/02 01:53:32;;;;;;;0.10;0.10;;;;;;;;;;4837695;29;20042;-89
2021/08/02 01:56:08;;;;;;;0.10;0.10;;;;;;;;;;4822635;29;20053;-89
2021/08/02 01:58:41;;;;;;;0.10;0.10;;;;;;;;;;4822755;29;20555;-90
2021/08/02 02:01:07;;;;;;;0.10;0.10;;;;;;;;;;4837608;29;20050;-90
2021/08/02 02:03:33;;;;;;;0.10;0.10;;;;;;;;;;4822875;29;20081;-89
2021/08/02 02:06:04;;;;;;;0.10;0.10;;;;;;;;;;4837601;29;20038;-89
2021/08/02 02:08:31;;;;;;;0.10;0.10;;;;;;;;;;4822512;29;20128;-89
2021/08/02 02:10:58;;;;;;;0.10;0.10;;;;;;;;;;4822830;29;20050;-89
2021/08/02 02:13:32;;;;;;;0.10;0.10;;;;;;;;;;4822462;29;20050;-89
2021/08/02 02:16:00;;;;;;;0.20;0.20;;;;;;;;;;4822672;29;20057;-90
2021/08/02 02:18:26;;;;;;;0.20;0.20;;;;;;;;;;4837525;29;20042;-90
2021/08/02 02:20:52;;;;;;;0.10;0.10;;;;;;;;;;4822329;29;20047;-89
2021/08/02 02:23:18;;;;;;;0.43;0.40;;;;;;;;;;4837969;29;20046;-89
2021/08/02 02:25:44;;;;;;;0.10;0.10;;;;;;;;;;4822614;29;20129;-90
2021/08/02 02:28:12;;;;;;;0.10;0.10;;;;;;;;;;4822631;29;20038;-89
2021/08/02 02:30:38;;;;;;;0.30;0.30;;;;;;;;;;4822610;29;20140;-91
2021/08/02 02:33:05;;;;;;;0.10;0.10;;;;;;;;;;4822204;29;20438;-91
2021/08/02 02:35:31;;;;;;;0.10;0.10;;;;;;;;;;4822751;29;20050;-90
2021/08/02 02:37:57;;;;;;;0.10;0.10;;;;;;;;;;4822745;29;20046;-90
2021/08/02 02:40:23;;;;;;;0.20;0.20;;;;;;;;;;4822695;29;20104;-91
2021/08/02 02:42:49;;;;;;;0.15;0.15;;;;;;;;;;4837437;29;20050;-91
2021/08/02 02:45:15;;;;;;;0.38;0.20;;;;;;;;;;4822298;29;20461;-90
2021/08/02 02:47:41;;;;;;;0.10;0.10;;;;;;;;;;4821964;29;20054;-89
2021/08/02 02:50:07;;;;;;;0.10;0.10;;;;;;;;;;4837671;29;20050;-89
2021/08/02 02:52:35;;;;;;;0.10;0.10;;;;;;;;;;4822553;29;20495;-90
2021/08/02 02:55:01;;;;;;;0.10;0.10;;;;;;;;;;4837697;29;20110;-90
2021/08/02 02:57:27;;;;;;;0.20;0.20;;;;;;;;;;4837820;29;20129;-90
2021/08/02 02:59:53;;;;;;;0.10;0.10;;;;;;;;;;4822340;29;20042;-91
2021/08/02 03:02:20;;;;;;;0.30;0.30;;;;;;;;;;4822278;29;20107;-90
2021/08/02 03:04:47;;;;;;;0.10;0.10;;;;;;;;;;4837513;29;20126;-90
2021/08/02 03:07:14;;;;;;;0.10;0.10;;;;;;;;;;4822204;29;20069;-91
2021/08/02 03:09:40;;;;;;;0.10;0.10;;;;;;;;;;4822296;29;20138;-90
2021/08/02 03:12:06;;;;;;;0.10;0.10;;;;;;;;;;4822143;29;20082;-91
2021/08/02 03:14:33;;;;;;;0.20;0.20;;;;;;;;;;4825005;29;20118;-90
2021/08/02 03:16:59;;;;;;;0.10;0.10;;;;;;;;;;4825403;29;20136;-90
2021/08/02 03:19:25;;;;;;;0.20;0.20;;;;;;;;;;4825240;29;20066;-88
2021/08/02 03:21:51;;;;;;;0.10;0.10;;;;;;;;;;4825135;29;20042;-89
2021/08/02 03:24:17;;;;;;;0.10;0.10;;;;;;;;;;4825303;29;20048;-89
2021/08/02 03:26:53;;;;;;;0.10;0.10;;;;;;;;;;4825190;29;20456;-90
2021/08/02 03:29:20;;;;;;;0.15;0.15;;;;;;;;;;4825205;29;20050;-90
2021/08/02 03:31:49;;;;;;;0.15;0.15;;;;;;;;;;4825078;29;20136;-90
2021/08/02 03:34:18;;;;;;;0.10;0.10;;;;;;;;;;4840377;29;20046;-90
2021/08/02 03:36:44;;;;;;;0.10;0.10;;;;;;;;;;4840288;29;20042;-90
2021/08/02 03:39:10;;;;;;;0.10;0.10;;;;;;;;;;4840425;29;20046;-90
2021/08/02 03:41:41;;;;;;;0.10;0.10;;;;;;;;;;4825094;29;20556;-90
2021/08/02 03:44:07;;;;;;;0.10;0.10;;;;;;;;;;4824863;29;20136;-90
2021/08/02 03:46:33;;;;;;;0.10;0.10;;;;;;;;;;4824704;29;20094;-90
2021/08/02 03:48:59;;;;;;;0.20;0.20;;;;;;;;;;4840118;29;20045;-89
2021/08/02 03:51:34;;;;;;;0.10;0.10;;;;;;;;;;4839462;29;20085;-90
2021/08/02 03:54:01;;;;;;;0.10;0.10;;;;;;;;;;4824743;29;20086;-90
2021/08/02 03:56:27;;;;;;;0.20;0.20;;;;;;;;;;4826447;29;20552;-94
2021/08/02 03:58:53;;;;;;;0.10;0.10;;;;;;;;;;4826995;29;20529;-89
2021/08/02 04:01:19;;;;;;;0.10;0.10;;;;;;;;;;4824494;29;20046;-88
2021/08/02 04:03:45;;;;;;;0.10;0.10;;;;;;;;;;4825586;29;20125;-88
2021/08/02 04:06:11;;;;;;;0.10;0.10;;;;;;;;;;4824230;29;20066;-88
2021/08/02 04:08:37;;;;;;;0.10;0.10;;;;;;;;;;4839416;29;20069;-88
2021/08/02 04:11:04;;;;;;;0.10;0.10;;;;;;;;;;4809367;29;20057;-88
2021/08/02 04:13:33;;;;;;;0.10;0.10;;;;;;;;;;4838963;29;20479;-89
2021/08/02 04:16:04;;;;;;;0.10;0.10;;;;;;;;;;4824375;29;20043;-88
2021/08/02 04:18:30;;;;;;;0.10;0.10;;;;;;;;;;4839330;29;20092;-89
2021/08/02 04:20:56;;;;;;;0.10;0.10;;;;;;;;;;4839244;29;20116;-89
2021/08/02 04:23:22;;;;;;;0.10;0.10;;;;;;;;;;4824468;29;20050;-89
2021/08/02 04:25:48;;;;;;;0.10;0.10;;;;;;;;;;4823992;29;20034;-89
2021/08/02 04:28:17;;;;;;;0.10;0.10;;;;;;;;;;4824192;29;20066;-90
2021/08/02 04:30:44;;;;;;;0.10;0.10;;;;;;;;;;4839075;29;20121;-89
2021/08/02 04:33:10;;;;;;;0.10;0.10;;;;;;;;;;4823409;29;20139;-90
2021/08/02 04:35:36;;;;;;;0.10;0.10;;;;;;;;;;4839315;29;20403;-90
2021/08/02 04:38:02;;;;;;;0.10;0.10;;;;;;;;;;4824248;29;20103;-90
2021/08/02 04:40:28;;;;;;;0.10;0.10;;;;;;;;;;4839130;29;20070;-89
2021/08/02 04:42:54;;;;;;;0.10;0.10;;;;;;;;;;4824145;29;20049;-90
2021/08/02 04:45:20;;;;;;;0.10;0.10;;;;;;;;;;4839235;29;20057;-90
2021/08/02 04:47:46;;;;;;;0.10;0.10;;;;;;;;;;4823946;29;20047;-90
2021/08/02 04:50:12;;;;;;;0.10;0.10;;;;;;;;;;4839021;29;20103;-90
2021/08/02 04:52:39;;;;;;;0.10;0.10;;;;;;;;;;4824005;29;20042;-91
2021/08/02 04:55:06;;;;;;;0.15;0.15;;;;;;;;;;4838762;29;20046;-90
2021/08/02 04:57:32;;;;;;;0.20;0.20;;;;;;;;;;4823831;29;20038;-90
2021/08/02 04:59:59;;;;;;;0.13;0.13;;;;;;;;;;4823799;29;20051;-90
2021/08/02 05:02:26;;;;;;;0.30;0.30;;;;;;;;;;4823988;29;20066;-90
2021/08/02 05:04:52;;;;;;;0.10;0.10;;;;;;;;;;4823849;29;20039;-90
2021/08/02 05:07:18;;;;;;;0.20;0.20;;;;;;;;;;4838859;29;20046;-90
2021/08/02 05:09:44;;;;;;;0.10;0.10;;;;;;;;;;4823571;29;20054;-90
2021/08/02 05:12:10;;;;;;;0.10;0.10;;;;;;;;;;4838651;29;20046;-90
2021/08/02 05:14:36;;;;;;;0.10;0.10;;;;;;;;;;4838446;29;20070;-89
2021/08/02 05:17:02;;;;;;;0.20;0.20;;;;;;;;;;4838566;29;20053;-90
2021/08/02 05:19:29;;;;;;;0.10;0.10;;;;;;;;;;4823384;29;20069;-89
2021/08/02 05:21:56;;;;;;;0.10;0.10;;;;;;;;;;4823198;29;20395;-89
2021/08/02 05:24:22;;;;;;;0.10;0.10;;;;;;;;;;4838635;29;20129;-87
2021/08/02 05:26:48;;;;;;;0.10;0.10;;;;;;;;;;4838281;29;20047;-90
2021/08/02 05:29:14;;;;;;;0.10;0.10;;;;;;;;;;4823427;29;20708;-88
2021/08/02 05:31:40;;;;;;;0.10;0.10;;;;;;;;;;4838128;29;20043;-89
2021/08/02 05:34:06;;;;;;;0.20;0.20;;;;;;;;;;4838089;29;20042;-89
2021/08/02 05:36:32;;;;;;;0.10;0.10;;;;;;;;;;4822602;29;20046;-90
2021/08/02 05:38:58;;;;;;;0.20;0.20;;;;;;;;;;4824210;29;20050;-90
2021/08/02 05:41:24;;;;;;;0.10;0.10;;;;;;;;;;4839455;29;20112;-91
2021/08/02 05:43:50;;;;;;;0.10;0.10;;;;;;;;;;4838096;29;20034;-90
2021/08/02 05:46:16;;;;;;;0.10;0.10;;;;;;;;;;4837741;29;20062;-88
2021/08/02 05:48:43;;;;;;;0.13;0.13;;;;;;;;;;4822590;29;20039;-88
2021/08/02 05:51:09;;;;;;;0.10;0.10;;;;;;;;;;4822511;29;20042;-88
2021/08/02 05:53:36;;;;;;;0.10;0.10;;;;;;;;;;4822812;29;20045;-88
2021/08/02 05:56:03;;;;;;;0.10;0.10;;;;;;;;;;4822612;29;20042;-88
2021/08/02 05:58:31;;;;;;;0.10;0.10;;;;;;;;;;4807395;29;20042;-88
2021/08/02 06:00:57;;;;;;;0.10;0.10;;;;;;;;;;4837585;29;20510;-89
2021/08/02 06:03:23;;;;;;;0.10;0.10;;;;;;;;;;4807347;29;20487;-89
2021/08/02 06:05:49;;;;;;;0.20;0.20;;;;;;;;;;4822469;29;20572;-90
2021/08/02 06:08:15;;;;;;;0.10;0.10;;;;;;;;;;4822406;29;20046;-88
2021/08/02 06:10:41;;;;;;;0.13;0.13;;;;;;;;;;4823545;29;20050;-91
2021/08/02 06:13:11;;;;;;;0.10;0.10;;;;;;;;;;4837215;29;20048;-89
2021/08/02 06:15:37;;;;;;;0.10;0.10;;;;;;;;;;4822566;29;20046;-89
2021/08/02 06:18:03;;;;;;;0.10;0.10;;;;;;;;;;4837543;29;20042;-91
2021/08/02 06:20:31;;;;;;;0.10;0.10;;;;;;;;;;4822702;29;20038;-91
2021/08/02 06:22:57;;;;;;;0.10;0.10;;;;;;;;;;4822816;29;20060;-92
2021/08/02 06:25:23;;;;;;;0.10;0.10;;;;;;;;;;4837818;29;20048;-91
2021/08/02 06:27:49;;;;;;;0.10;0.10;;;;;;;;;;4822844;29;20057;-92
2021/08/02 06:30:16;;;;;;;0.20;0.20;;;;;;;;;;4838027;29;20480;-90
2021/08/02 06:32:42;;;;;;;0.20;0.20;;;;;;;;;;4837453;29;20053;-91
2021/08/02 06:35:08;;;;;;;0.20;0.20;;;;;;;;;;4822225;29;20414;-90
2021/08/02 06:37:38;;;;;;;0.10;0.10;;;;;;;;;;4822391;29;20046;-92
2021/08/02 06:40:08;;;;;;;0.10;0.10;;;;;;;;;;4822671;29;20473;-90
2021/08/02 06:42:34;;;;;;;0.10;0.10;;;;;;;;;;4837427;29;20047;-89
2021/08/02 06:45:00;;;;;;;0.10;0.10;;;;;;;;;;4839709;29;20050;-90
2021/08/02 06:47:34;;;;;;;0.10;0.10;;;;;;;;;;4812324;29;20118;-89
2021/08/02 06:50:00;;;;;;;0.20;0.20;;;;;;;;;;4844021;29;20511;-90
2021/08/02 06:52:26;;;;;;;0.10;0.10;;;;;;;;;;4828712;29;20063;-90
2021/08/02 06:54:52;;;;;;;0.20;0.20;;;;;;;;;;4844064;29;20455;-89
2021/08/02 06:57:21;;;;;;;0.10;0.10;;;;;;;;;;4844983;29;20074;-91
2021/08/02 06:59:47;;;;;;;0.20;0.20;;;;;;;;;;4843790;29;20042;-91
2021/08/02 07:02:13;;;;;;;0.10;0.10;;;;;;;;;;4828707;29;20048;-90
2021/08/02 07:04:39;;;;;;;0.10;0.10;;;;;;;;;;4828766;29;20042;-92
2021/08/02 07:07:05;;;;;;;0.20;0.20;;;;;;;;;;4844046;29;20061;-91
2021/08/02 07:09:31;;;;;;;0.10;0.10;;;;;;;;;;4843763;29;20130;-90
2021/08/02 07:11:57;;;;;;;0.10;0.10;;;;;;;;;;4843736;29;20107;-90
2021/08/02 07:14:23;;;;;;;0.10;0.10;;;;;;;;;;4828092;29;20483;-91
2021/08/02 07:16:49;;;;;;;0.10;0.10;;;;;;;;;;4828055;29;20071;-90
2021/08/02 07:19:15;;;;;;;0.20;0.20;;;;;;;;;;4828053;29;20124;-89
2021/08/02 07:21:41;;;;;;;0.10;0.10;;;;;;;;;;4828173;29;20129;-89
2021/08/02 07:24:07;;;;;;;0.10;0.10;;;;;;;;;;4843417;29;20124;-87
2021/08/02 07:26:33;;;;;;;0.20;0.20;;;;;;;;;;4843635;29;20522;-90
2021/08/02 07:29:01;;;;;;;0.10;0.10;;;;;;;;;;4843728;29;20388;-90
2021/08/02 07:31:27;;;;;;;0.10;0.10;;;;;;;;;;4828547;29;20496;-90
2021/08/02 07:33:53;;;;;;;0.10;0.10;;;;;;;;;;4827913;29;20054;-89
2021/08/02 07:36:19;;;;;;;0.20;0.20;;;;;;;;;;4827808;29;20110;-88
2021/08/02 07:38:45;;;;;;;0.10;0.10;;;;;;;;;;4842861;29;20033;-89
2021/08/02 07:41:11;;;;;;;0.20;0.20;;;;;;;;;;4843005;29;20057;-89
2021/08/02 07:43:38;;;;;;;0.10;0.10;;;;;;;;;;4827457;29;20073;-89
2021/08/02 07:46:04;;;;;;;0.10;0.10;;;;;;;;;;4827346;29;20049;-89
2021/08/02 07:48:30;;;;;;;0.10;0.10;;;;;;;;;;4842969;29;20044;-89
2021/08/02 07:50:56;;;;;;;0.10;0.10;;;;;;;;;;4842866;29;20070;-88
2021/08/02 07:53:22;;;;;;;0.10;0.10;;;;;;;;;;4827613;29;20080;-89
2021/08/02 07:55:48;;;;;;;0.10;0.10;;;;;;;;;;4842863;29;20122;-90
2021/08/02 07:58:16;;;;;;;0.20;0.20;;;;;;;;;;4842190;29;20042;-90
2021/08/02 08:00:42;;;;;;;0.10;0.10;;;;;;;;;;4842170;29;20568;-89
2021/08/02 08:03:08;;;;;;;0.10;0.10;;;;;;;;;;4842883;29;20513;-92
2021/08/02 08:05:34;;;;;;;0.10;0.10;;;;;;;;;;4827662;29;20455;-89
2021/08/02 08:08:00;;;;;;;0.10;0.10;;;;;;;;;;4827023;29;20513;-89
2021/08/02 08:10:27;;;;;;;0.10;0.10;;;;;;;;;;4842522;29;20065;-89
2021/08/02 08:12:53;;;;;;;0.10;0.10;;;;;;;;;;4826887;29;20481;-89
2021/08/02 08:15:20;;;;;;;0.10;0.10;;;;;;;;;;4842390;29;20069;-89
2021/08/02 08:17:45;;;;;;;0.10;0.10;;;;;;;;;;4827158;29;20045;-89
2021/08/02 08:20:12;;;;;;;0.10;0.10;;;;;;;;;;4842555;29;20045;-89
2021/08/02 08:22:38;;;;;;;0.10;0.10;;;;;;;;;;4843540;29;20048;-89
2021/08/02 08:25:05;;;;;;;0.10;0.10;;;;;;;;;;4823822;29;20471;-90
2021/08/02 08:27:31;;;;;;;0.20;0.20;;;;;;;;;;4826110;29;20033;-89
2021/08/02 08:29:57;;;;;;;0.20;0.20;;;;;;;;;;4827200;29;20340;-89
2021/08/02 08:32:23;;;;;;;0.10;0.10;;;;;;;;;;4806188;29;20041;-91
2021/08/02 08:34:49;;;;;;;0.20;0.20;;;;;;;;;;4811832;29;20094;-88
2021/08/02 08:37:15;;;;;;;0.10;0.10;;;;;;;;;;4816702;29;20050;-89
2021/08/02 08:39:41;;;;;;;0.10;0.10;;;;;;;;;;4808713;29;20095;-89
2021/08/02 08:42:07;;;;;;;0.10;0.10;;;;;;;;;;4808597;29;20054;-90
2021/08/02 08:44:34;;;;;;;0.20;0.20;;;;;;;;;;4794077;29;20038;-89
2021/08/02 08:47:00;;;;;;;0.13;0.13;;;;;;;;;;4797424;29;20050;-88
2021/08/02 08:49:26;;;;;;;0.20;0.20;;;;;;;;;;4823574;29;20054;-88
2021/08/02 08:51:55;;;;;;;0.20;0.20;;;;;;;;;;4816504;29;20518;-89
2021/08/02 08:54:22;;;;;;;0.10;0.10;;;;;;;;;;4809118;29;20559;-89
2021/08/02 08:56:48;;;;;;;0.20;0.20;;;;;;;;;;4823657;29;20464;-89
2021/08/02 08:59:20;;;;;;;0.10;0.10;;;;;;;;;;4809379;29;20046;-88
2021/08/02 09:01:46;;;;;;;0.10;0.10;;;;;;;;;;4808447;29;20054;-89
2021/08/02 09:04:12;;;;;;;0.10;0.10;;;;;;;;;;4808412;29;20050;-88
2021/08/02 09:06:48;;;;;;;0.10;0.10;;;;;;;;;;4808165;29;20491;-89
2021/08/02 09:09:26;;;;;;;0.10;0.10;;;;;;;;;;4808662;29;20038;-88
2021/08/02 09:12:02;;;;;;;0.10;0.10;;;;;;;;;;4822223;29;20061;-87
2021/08/02 09:14:28;;;;;;;0.10;0.10;;;;;;;;;;4807987;29;20051;-87
2021/08/02 09:16:57;;;;;;;0.10;0.10;;;;;;;;;;4823097;29;20394;-89
2021/08/02 09:19:23;;;;;;;0.20;0.20;;;;;;;;;;4808764;29;20050;-89
2021/08/02 09:21:52;;;;;;;0.10;0.10;;;;;;;;;;4824175;29;20464;-90
2021/08/02 09:24:30;;;;;;;0.20;0.20;;;;;;;;;;4808316;29;20046;-89
2021/08/02 09:26:56;;;;;;;0.20;0.20;;;;;;;;;;4807953;29;20582;-88
2021/08/02 09:29:29;;;;;;;0.10;0.10;;;;;;;;;;4823113;29;20118;-90
2021/08/02 09:32:08;;;;;;;0.30;0.30;;;;;;;;;;5130691;27;20379;-89
2021/08/02 09:34:47;;;;;;;0.10;0.10;;;;;;;;;;5129510;28;20480;-90
2021/08/02 09:37:22;;;;;;;0.10;0.10;;;;;;;;;;5112566;28;20035;-88
2021/08/02 09:39:49;;;;;;;0.10;0.10;;;;;;;;;;5112412;28;20393;-92
2021/08/02 09:42:15;;;;;;;0.20;0.20;;;;;;;;;;5129646;28;20035;-95
2021/08/02 09:44:41;;;;;;;0.10;0.10;;;;;;;;;;5112965;27;20118;-92
2021/08/02 09:47:07;;;;;;;1.15;0.98;;;;;;;;;;5095610;28;20067;-92
2021/08/02 09:49:46;;;;;;;0.20;0.20;;;;;;;;;;5112501;28;20039;-90
2021/08/02 09:52:12;;;;;;;0.10;0.10;;;;;;;;;;5129243;27;20123;-93
2021/08/02 09:54:39;;;;;;;0.10;0.10;;;;;;;;;;5095679;28;20061;-93
2021/08/02 09:57:05;;;;;;;0.20;0.20;;;;;;;;;;5129085;27;20043;-88
2021/08/02 09:59:32;;;;;;;0.40;0.40;;;;;;;;;;5128814;28;20040;-88
2021/08/02 10:01:57;;;;;;;0.20;0.20;;;;;;;;;;5128737;27;20085;-87
2021/08/02 10:04:24;;;;;;;0.20;0.20;;;;;;;;;;5111592;28;20039;-88
2021/08/02 10:06:50;;;;;;;0.47;0.47;;;;;;;;;;5128541;28;20474;-88
2021/08/02 10:09:16;;;;;;;0.10;0.10;;;;;;;;;;5111697;28;20040;-87
2021/08/02 10:11:42;;;;;;;0.10;0.10;;;;;;;;;;5128391;28;20042;-89
2021/08/02 10:14:10;;;;;;;0.10;0.10;;;;;;;;;;5111737;28;20364;-89
2021/08/02 10:16:38;;;;;;;0.10;0.10;;;;;;;;;;5112230;28;20041;-94
2021/08/02 10:19:08;;;;;;;0.10;0.10;;;;;;;;;;5111106;28;20035;-89
2021/08/02 10:21:38;;;;;;;0.10;0.10;;;;;;;;;;5111702;28;20043;-89
2021/08/02 10:24:06;;;;;;;0.10;0.10;;;;;;;;;;5132441;28;20130;-89
2021/08/02 10:26:33;;;;;;;0.10;0.10;;;;;;;;;;5130031;28;20031;-90
2021/08/02 10:29:03;;;;;;;0.10;0.10;;;;;;;;;;5111919;28;20101;-90
2021/08/02 10:31:29;;;;;;;0.10;0.10;;;;;;;;;;5131386;28;20071;-91
2021/08/02 10:33:56;;;;;;;0.10;0.10;;;;;;;;;;5112676;28;20032;-89
2021/08/02 10:36:23;;;;;;;0.10;0.10;;;;;;;;;;5128238;28;20096;-89
2021/08/02 10:38:50;;;;;;;0.10;0.10;;;;;;;;;;5130220;28;20035;-90
2021/08/02 10:41:29;;;;;;;0.10;0.10;;;;;;;;;;5110088;28;20496;-90
2021/08/02 10:43:55;;;;;;;0.10;0.10;;;;;;;;;;5114492;28;20039;-90
2021/08/02 10:46:23;;;;;;;0.20;0.20;;;;;;;;;;5114853;28;20036;-91
2021/08/02 10:48:49;;;;;;;0.10;0.10;;;;;;;;;;5081351;28;20433;-95
2021/08/02 10:51:17;;;;;;;0.17;0.17;;;;;;;;;;5083611;28;20044;-91
2021/08/02 10:53:43;;;;;;;0.20;0.20;;;;;;;;;;5099671;28;20070;-93
2021/08/02 10:56:09;;;;;;;0.10;0.10;;;;;;;;;;5115162;28;20084;-93
2021/08/02 10:58:40;;;;;;;0.22;0.22;;;;;;;;;;5098111;28;20051;-92
2021/08/02 11:01:12;;;;;;;0.10;0.10;;;;;;;;;;5115333;28;20044;-94
2021/08/02 11:03:39;;;;;;;0.10;0.10;;;;;;;;;;5098339;28;20398;-92
2021/08/02 11:06:06;;;;;;;0.10;0.10;;;;;;;;;;5097664;28;20043;-92
2021/08/02 11:08:35;;;;;;;0.10;0.10;;;;;;;;;;5097348;28;20236;-90
2021/08/02 11:11:03;;;;;;;0.10;0.10;;;;;;;;;;5097409;28;20081;-90
2021/08/02 11:13:30;;;;;;;0.20;0.20;;;;;;;;;;5097010;28;20399;-91
2021/08/02 11:15:56;;;;;;;0.10;0.10;;;;;;;;;;5114417;28;20454;-91
2021/08/02 11:18:23;;;;;;;0.20;0.20;;;;;;;;;;5096498;28;20376;-90
2021/08/02 11:20:49;;;;;;;0.10;0.10;;;;;;;;;;5096883;28;20043;-91
2021/08/02 11:23:15;;;;;;;0.13;0.13;;;;;;;;;;5096646;28;20100;-89
2021/08/02 11:25:41;;;;;;;0.20;0.20;;;;;;;;;;5096636;28;20487;-88
2021/08/02 11:28:07;;;;;;;0.30;0.30;;;;;;;;;;5113494;28;20044;-88
2021/08/02 11:30:34;;;;;;;0.17;0.17;;;;;;;;;;5113118;28;20075;-89
2021/08/02 11:33:00;;;;;;;0.20;0.20;;;;;;;;;;5113301;28;20039;-88
2021/08/02 11:35:36;;;;;;;0.10;0.10;;;;;;;;;;5113177;28;20100;-88
2021/08/02 11:38:03;;;;;;;0.20;0.20;;;;;;;;;;5113403;28;20322;-89
2021/08/02 11:40:39;;;;;;;0.10;0.10;;;;;;;;;;5113439;28;20118;-90
2021/08/02 11:43:05;;;;;;;0.10;0.10;;;;;;;;;;5096843;28;20038;-90
2021/08/02 11:45:31;;;;;;;0.10;0.10;;;;;;;;;;5113505;28;20035;-91
2021/08/02 11:47:59;;;;;;;0.10;0.10;;;;;;;;;;5096292;28;20085;-89
2021/08/02 11:50:25;;;;;;;0.10;0.10;;;;;;;;;;5096720;28;20495;-91
2021/08/02 11:52:58;;;;;;;0.10;0.10;;;;;;;;;;5079480;28;20052;-89
2021/08/02 11:55:24;;;;;;;0.20;0.20;;;;;;;;;;5095576;28;20031;-88
2021/08/02 11:57:58;;;;;;;0.10;0.10;;;;;;;;;;5096013;28;20036;-90
2021/08/02 12:00:24;;;;;;;0.10;0.10;;;;;;;;;;5096483;28;20044;-91
2021/08/02 12:02:50;;;;;;;0.10;0.10;;;;;;;;;;5097310;28;20036;-90
2021/08/02 12:05:19;;;;;;;0.20;0.20;;;;;;;;;;5095911;28;20038;-89
2021/08/02 12:07:45;;;;;;;0.10;0.10;;;;;;;;;;5113959;28;20043;-89
2021/08/02 12:10:12;;;;;;;0.10;0.10;;;;;;;;;;5095800;28;20479;-89
2021/08/02 12:12:38;;;;;;;0.10;0.10;;;;;;;;;;5112465;28;20495;-89
2021/08/02 12:15:05;;;;;;;0.20;0.20;;;;;;;;;;5112709;28;20180;-90
2021/08/02 12:17:31;;;;;;;0.10;0.10;;;;;;;;;;5115380;28;20611;-88
2021/08/02 12:19:57;;;;;;;0.10;0.10;;;;;;;;;;5095655;28;20055;-89
2021/08/02 12:22:23;;;;;;;0.20;0.20;;;;;;;;;;5095581;28;20187;-88
2021/08/02 12:24:49;;;;;;;0.20;0.20;;;;;;;;;;5112284;28;20039;-88
2021/08/02 12:27:17;;;;;;;0.10;0.10;;;;;;;;;;5091043;28;20097;-90
2021/08/02 12:29:43;;;;;;;0.10;0.10;;;;;;;;;;5075092;28;20550;-89
2021/08/02 12:32:09;;;;;;;0.20;0.20;;;;;;;;;;5091897;28;20483;-88
2021/08/02 12:34:37;;;;;;;0.17;0.17;;;;;;;;;;5092125;28;20043;-89
2021/08/02 12:37:03;;;;;;;0.20;0.20;;;;;;;;;;5075107;28;20036;-90
2021/08/02 12:39:29;;;;;;;0.20;0.20;;;;;;;;;;5075625;28;20044;-91
2021/08/02 12:41:56;;;;;;;0.10;0.10;;;;;;;;;;5101991;28;20114;-91
2021/08/02 12:44:22;;;;;;;0.10;0.10;;;;;;;;;;5095829;28;20395;-91
2021/08/02 12:46:48;;;;;;;0.13;0.13;;;;;;;;;;5095638;28;20031;-91
2021/08/02 12:49:14;;;;;;;0.10;0.10;;;;;;;;;;5095598;28;20090;-91
2021/08/02 12:51:40;;;;;;;0.20;0.20;;;;;;;;;;5112354;28;20192;-91
2021/08/02 12:54:06;;;;;;;0.15;0.15;;;;;;;;;;5095346;28;20179;-92
2021/08/02 12:56:32;;;;;;;0.20;0.20;;;;;;;;;;5112450;28;20475;-90
2021/08/02 12:58:58;;;;;;;0.10;0.10;;;;;;;;;;5095157;28;20047;-90
2021/08/02 13:01:24;;;;;;;0.10;0.10;;;;;;;;;;5095295;28;20035;-90
2021/08/02 13:03:50;;;;;;;0.10;0.10;;;;;;;;;;5095278;28;20063;-91
2021/08/02 13:06:18;;;;;;;0.10;0.10;;;;;;;;;;5095199;28;20047;-90
2021/08/02 13:08:44;;;;;;;0.10;0.10;;;;;;;;;;5095326;28;20062;-90
2021/08/02 13:11:10;;;;;;;0.25;0.25;;;;;;;;;;5095058;28;20059;-90
2021/08/02 13:13:36;;;;;;;0.10;0.10;;;;;;;;;;5111766;28;20054;-91
2021/08/02 13:16:02;;;;;;;0.10;0.10;;;;;;;;;;5095203;28;20035;-90
2021/08/02 13:18:28;;;;;;;0.10;0.10;;;;;;;;;;5077833;28;20479;-90
2021/08/02 13:20:55;;;;;;;0.10;0.10;;;;;;;;;;5094818;28;20070;-91
2021/08/02 13:28:34;;;;;;;0.10;0.10;;;;;;;;;;5112201;28;20040;-92
2021/08/02 13:31:00;;;;;;;0.10;0.10;;;;;;;;;;5112037;28;20052;-93
2021/08/02 13:33:26;;;;;;;0.10;0.10;;;;;;;;;;5095158;28;20118;-92
2021/08/02 13:35:52;;;;;;;0.10;0.10;;;;;;;;;;5094849;28;20442;-90
2021/08/02 13:38:19;;;;;;;0.10;0.10;;;;;;;;;;5094923;28;20432;-90
2021/08/02 13:40:45;;;;;;;0.10;0.10;;;;;;;;;;5111434;28;20402;-90
2021/08/02 13:43:11;;;;;;;0.10;0.10;;;;;;;;;;5111289;28;20127;-89
2021/08/02 13:45:38;;;;;;;0.10;0.10;;;;;;;;;;5094390;28;20527;-90
2021/08/02 13:48:04;;;;;;;0.10;0.10;;;;;;;;;;5110910;28;20032;-89
2021/08/02 13:50:30;;;;;;;0.10;0.10;;;;;;;;;;5094112;28;20144;-89
2021/08/02 13:52:56;;;;;;;0.10;0.10;;;;;;;;;;5111144;28;20467;-89
2021/08/02 13:55:22;;;;;;;0.20;0.20;;;;;;;;;;5094275;28;20067;-91
2021/08/02 13:57:48;;;;;;;0.10;0.10;;;;;;;;;;5110892;28;20055;-89
2021/08/02 14:00:15;;;;;;;0.10;0.10;;;;;;;;;;5094338;28;20094;-90
2021/08/02 14:02:42;;;;;;;0.10;0.10;;;;;;;;;;5110957;28;20480;-91
2021/08/02 14:05:08;;;;;;;0.10;0.10;;;;;;;;;;5111106;28;20061;-90
2021/08/02 14:07:34;;;;;;;0.20;0.20;;;;;;;;;;5111307;28;20089;-91
2021/08/02 14:10:00;;;;;;;0.10;0.10;;;;;;;;;;5111504;28;20169;-91
2021/08/02 14:12:29;;;;;;;0.10;0.10;;;;;;;;;;5111483;28;20487;-91
2021/08/02 14:14:56;;;;;;;0.10;0.10;;;;;;;;;;5094719;28;20039;-91
2021/08/02 14:17:22;;;;;;;0.10;0.10;;;;;;;;;;5095447;28;20063;-90
2021/08/02 14:19:48;;;;;;;0.10;0.10;;;;;;;;;;5097905;28;20040;-90
2021/08/02 14:22:14;;;;;;;0.10;0.10;;;;;;;;;;5112524;28;20481;-90
2021/08/02 14:24:40;;;;;;;0.10;0.10;;;;;;;;;;5098015;28;20035;-91
2021/08/02 14:27:06;;;;;;;0.10;0.10;;;;;;;;;;5115105;28;20039;-91
2021/08/02 14:29:32;;;;;;;0.10;0.10;;;;;;;;;;5099696;28;20073;-94
2021/08/02 14:32:01;;;;;;;0.20;0.20;;;;;;;;;;5097683;28;20448;-91
2021/08/02 14:34:27;;;;;;;0.20;0.20;;;;;;;;;;5114823;28;20122;-89
2021/08/02 14:36:54;;;;;;;0.10;0.10;;;;;;;;;;5114954;28;20067;-90
2021/08/02 14:39:20;;;;;;;0.10;0.10;;;;;;;;;;5094496;28;20044;-90
2021/08/02 14:41:56;;;;;;;0.10;0.10;;;;;;;;;;5077735;28;20390;-91
2021/08/02 14:44:22;;;;;;;0.10;0.10;;;;;;;;;;5078074;28;20117;-90
2021/08/02 14:46:51;;;;;;;0.10;0.10;;;;;;;;;;5077256;28;20075;-91
2021/08/02 14:49:17;;;;;;;0.10;0.10;;;;;;;;;;5078735;28;20067;-93